Time;durP1;ratioP1;P1;durP2;ratioP2;P2;SDS_P1;SDS_P2;PMS_P1;PMS_P2;Temp;Humidity;BMP_temperature;BMP_pressure;BME280_temperature;BME280_humidity;BME280_pressure;Samples;Min_cycle;Max_cycle;Signal;HPM_P1;HPM_P2
2022/11/28 00:02:15;;;;;;;11.15;5.70;;;;;;;5.49;85.02;101296.34;5041027;28;20049;-70
2022/11/28 00:04:42;;;;;;;18.35;7.68;;;;;;;5.40;85.84;101293.94;5030358;28;20056;-70
2022/11/28 00:07:10;;;;;;;16.50;8.35;;;;;;;5.45;85.30;101292.09;5019719;28;20049;-70
2022/11/28 00:09:37;;;;;;;17.15;8.23;;;;;;;5.48;85.45;101288.56;5046526;28;20378;-70
2022/11/28 00:12:03;;;;;;;16.17;8.65;;;;;;;5.40;85.70;101286.13;5039257;28;20048;-69
2022/11/28 00:14:30;;;;;;;18.83;7.90;;;;;;;5.25;86.02;101283.88;5019531;28;20045;-69
2022/11/28 00:16:57;;;;;;;18.35;9.20;;;;;;;5.14;86.65;101280.63;5036884;28;20672;-70
2022/11/28 00:19:23;;;;;;;8.38;5.15;;;;;;;5.15;86.67;101275.41;5029902;28;20057;-70
2022/11/28 00:21:49;;;;;;;18.23;8.88;;;;;;;5.09;86.21;101272.09;5024514;28;20051;-70
2022/11/28 00:24:17;;;;;;;11.88;6.05;;;;;;;5.31;85.59;101268.16;5049379;28;20048;-69
2022/11/28 00:26:44;;;;;;;14.40;6.60;;;;;;;5.31;85.59;101260.34;5049873;28;20102;-70
2022/11/28 00:29:11;;;;;;;15.63;9.00;;;;;;;5.25;85.81;101263.06;5039258;28;20045;-70
2022/11/28 00:31:41;;;;;;;14.40;7.63;;;;;;;5.14;86.26;101265.03;5045140;28;20057;-69
2022/11/28 00:34:08;;;;;;;20.08;8.02;;;;;;;5.24;86.23;101262.25;5030266;28;20103;-69
2022/11/28 00:36:34;;;;;;;20.08;9.30;;;;;;;4.88;87.61;101266.44;5022535;28;20083;-69
2022/11/28 00:39:01;;;;;;;11.77;7.32;;;;;;;5.35;85.21;101275.88;5034648;28;20048;-69
2022/11/28 00:41:30;;;;;;;17.80;7.60;;;;;;;5.21;85.84;101282.25;5030746;28;20048;-70
2022/11/28 00:43:57;;;;;;;15.00;8.15;;;;;;;5.56;84.74;101279.72;5037483;28;20066;-69
2022/11/28 00:46:25;;;;;;;16.92;8.18;;;;;;;5.48;84.93;101279.03;5045826;28;20040;-69
2022/11/28 00:48:52;;;;;;;13.25;7.30;;;;;;;5.40;84.60;101270.53;5075405;27;20552;-69
2022/11/28 00:51:20;;;;;;;18.55;8.23;;;;;;;5.43;84.41;101273.09;5039207;28;20646;-69
2022/11/28 00:53:48;;;;;;;13.30;7.13;;;;;;;4.96;85.82;101270.63;5009995;28;20099;-70
2022/11/28 00:56:17;;;;;;;12.88;7.13;;;;;;;5.10;85.83;101268.63;5014228;28;20048;-70
2022/11/28 00:58:46;;;;;;;12.55;7.28;;;;;;;5.15;85.04;101267.63;5026307;28;20398;-69
2022/11/28 01:01:15;;;;;;;13.95;7.78;;;;;;;5.31;84.36;101269.00;5038598;28;20058;-70
2022/11/28 01:03:42;;;;;;;17.20;7.80;;;;;;;5.27;84.39;101248.31;5022383;28;20049;-70
2022/11/28 01:06:11;;;;;;;12.90;8.02;;;;;;;5.33;83.60;101256.81;5029580;28;20045;-69
2022/11/28 01:08:37;;;;;;;12.95;7.47;;;;;;;5.12;84.54;101261.63;5028131;28;20045;-69
2022/11/28 01:11:04;;;;;;;16.70;8.05;;;;;;;5.32;83.71;101252.50;5036439;28;20041;-69
2022/11/28 01:13:31;;;;;;;16.90;8.48;;;;;;;5.20;83.83;101259.72;5056622;28;20458;-69
2022/11/28 01:15:59;;;;;;;17.17;7.60;;;;;;;5.40;82.91;101257.53;5056852;28;20044;-70
2022/11/28 01:18:25;;;;;;;12.10;6.53;;;;;;;5.19;83.67;101258.00;5055535;28;20048;-70
2022/11/28 01:20:52;;;;;;;15.13;7.88;;;;;;;4.84;85.51;101253.56;5068014;28;20113;-70
2022/11/28 01:23:18;;;;;;;19.73;7.25;;;;;;;5.08;85.17;101244.38;5066694;28;20098;-69
2022/11/28 01:25:45;;;;;;;11.35;6.38;;;;;;;4.66;86.52;101246.97;5039875;28;20072;-70
2022/11/28 01:28:11;;;;;;;17.67;7.57;;;;;;;4.88;85.84;101248.25;5048533;28;20048;-70
2022/11/28 01:30:38;;;;;;;14.68;7.32;;;;;;;4.98;85.46;101240.28;5047048;28;20306;-70
2022/11/28 01:33:05;;;;;;;17.85;8.00;;;;;;;5.29;84.25;101238.72;5040417;28;20469;-70
2022/11/28 01:35:32;;;;;;;14.98;8.05;;;;;;;4.95;85.12;101245.53;5049980;28;20051;-70
2022/11/28 01:37:58;;;;;;;13.88;7.82;;;;;;;5.49;83.75;101233.94;5058702;28;20051;-70
2022/11/28 01:40:25;;;;;;;13.90;7.70;;;;;;;5.69;81.85;101218.69;5061952;28;20039;-70
2022/11/28 01:42:51;;;;;;;11.82;6.90;;;;;;;5.37;82.91;101222.06;5067416;28;20056;-70
2022/11/28 01:45:21;;;;;;;14.43;8.02;;;;;;;5.29;83.49;101212.72;5061237;28;20085;-69
2022/11/28 01:47:49;;;;;;;17.40;8.80;;;;;;;5.31;84.04;101208.34;5049338;28;20514;-70
2022/11/28 01:50:18;;;;;;;12.27;7.13;;;;;;;5.36;83.02;101204.75;5067763;28;20055;-70
2022/11/28 01:52:49;;;;;;;15.98;8.60;;;;;;;5.52;82.27;101200.03;5048746;28;20048;-69
2022/11/28 01:55:20;;;;;;;15.82;7.82;;;;;;;5.34;83.26;101200.47;5038125;28;20110;-70
2022/11/28 01:57:47;;;;;;;18.67;7.43;;;;;;;5.53;82.65;101206.97;5048134;28;20041;-70
2022/11/28 02:00:16;;;;;;;17.67;7.15;;;;;;;5.51;83.10;101203.53;5053886;28;20048;-70
2022/11/28 02:02:47;;;;;;;14.25;7.03;;;;;;;5.49;81.85;101196.66;5038629;28;20048;-69
2022/11/28 02:05:14;;;;;;;12.88;7.60;;;;;;;5.38;83.84;101189.97;5047169;28;20056;-69
2022/11/28 02:07:43;;;;;;;16.88;6.78;;;;;;;5.65;81.55;101195.41;5056912;28;20427;-69
2022/11/28 02:10:15;;;;;;;14.82;7.95;;;;;;;5.99;79.90;101185.03;5047041;28;20040;-69
2022/11/28 02:13:04;;;;;;;14.45;7.30;;;;;;;5.60;81.32;101182.50;5047659;28;20054;-69
2022/11/28 02:15:50;;;;;;;15.25;7.35;;;;;;;5.76;80.87;101172.59;5035849;28;20044;-69
2022/11/28 02:18:35;;;;;;;17.02;7.65;;;;;;;5.80;80.54;101163.81;5036181;28;20656;-69
2022/11/28 02:21:29;;;;;;;15.57;8.27;;;;;;;5.62;81.01;101151.25;5083712;28;20106;-69
2022/11/28 02:24:24;;;;;;;12.07;6.90;;;;;;;5.38;82.92;101144.91;5036928;28;20473;-69
2022/11/28 02:27:11;;;;;;;14.73;7.60;;;;;;;5.54;82.74;101135.00;5018367;28;20044;-69
2022/11/28 02:29:59;;;;;;;12.07;6.18;;;;;;;5.62;82.05;101131.28;5027692;28;20049;-69
2022/11/28 02:32:44;;;;;;;15.30;8.98;;;;;;;5.38;83.14;101126.69;5027296;28;20064;-69
2022/11/28 02:35:18;;;;;;;15.77;7.40;;;;;;;5.23;83.65;101127.94;5018236;28;20125;-69
2022/11/28 02:37:52;;;;;;;16.60;6.25;;;;;;;5.41;83.27;101124.03;5040559;28;20055;-69
2022/11/28 02:40:24;;;;;;;12.18;6.15;;;;;;;5.19;84.12;101122.84;5037145;28;20047;-69
2022/11/28 02:43:01;;;;;;;14.38;8.13;;;;;;;5.32;83.81;101119.06;5040311;28;20041;-69
2022/11/28 02:45:35;;;;;;;17.38;8.27;;;;;;;5.32;84.53;101113.88;5032426;28;20056;-70
2022/11/28 02:48:04;;;;;;;17.83;9.05;;;;;;;5.56;83.19;101121.03;5032714;28;20425;-70
2022/11/28 02:50:37;;;;;;;13.00;6.68;;;;;;;5.51;83.25;101104.69;5030612;28;20041;-70
2022/11/28 02:53:06;;;;;;;;;;;;;;;5.62;82.99;101112.22;5030671;28;20045;-69
2022/11/28 02:55:33;;;;;;;16.15;7.30;;;;;;;5.50;83.04;101115.16;5047116;28;20331;-70
2022/11/28 02:58:00;;;;;;;15.68;9.15;;;;;;;5.25;84.56;101097.53;5049462;28;20051;-69
2022/11/28 03:00:29;;;;;;;10.88;6.55;;;;;;;5.20;84.33;101116.75;5061682;27;20047;-69
2022/11/28 03:03:19;;;;;;;17.77;8.85;;;;;;;5.16;84.54;101115.97;5055909;27;20064;-69
2022/11/28 03:05:51;;;;;;;17.90;10.07;;;;;;;4.86;85.58;101107.13;5040870;28;20484;-70
2022/11/28 03:08:35;;;;;;;13.23;8.10;;;;;;;4.59;87.41;101110.31;5049636;28;20523;-69
2022/11/28 03:11:08;;;;;;;17.10;8.27;;;;;;;4.46;88.17;101093.31;5042946;28;20397;-69
2022/11/28 03:13:40;;;;;;;18.55;8.95;;;;;;;4.73;87.44;101094.47;5049852;28;20052;-70
2022/11/28 03:16:17;;;;;;;18.63;8.70;;;;;;;4.71;86.68;101086.69;5041373;28;20048;-70
2022/11/28 03:18:55;;;;;;;16.33;8.18;;;;;;;4.78;86.77;101090.00;5049928;28;20492;-70
2022/11/28 03:21:29;;;;;;;9.93;5.80;;;;;;;4.89;85.98;101094.06;5040847;28;20068;-70
2022/11/28 03:24:00;;;;;;;20.40;8.70;;;;;;;4.93;85.22;101088.78;5050165;28;20037;-69
2022/11/28 03:26:36;;;;;;;17.55;8.50;;;;;;;4.72;86.68;101091.00;5050789;28;20051;-70
2022/11/28 03:29:11;;;;;;;17.00;8.35;;;;;;;4.33;88.22;101084.91;5039264;28;20063;-69
2022/11/28 03:31:41;;;;;;;15.27;8.38;;;;;;;4.58;87.72;101090.41;5038002;28;20051;-69
2022/11/28 03:34:15;;;;;;;14.85;8.35;;;;;;;4.81;86.76;101075.19;5030253;28;20044;-70
2022/11/28 03:36:47;;;;;;;17.38;8.57;;;;;;;4.99;85.88;101078.28;5051946;28;20043;-69
2022/11/28 03:39:17;;;;;;;19.75;9.90;;;;;;;4.76;86.70;101077.06;5053716;28;20514;-69
2022/11/28 03:41:49;;;;;;;17.30;10.48;;;;;;;4.73;86.05;101076.28;5050493;28;20044;-69
2022/11/28 03:44:21;;;;;;;17.58;9.20;;;;;;;4.50;87.79;101073.31;5050006;28;20536;-70
2022/11/28 03:46:49;;;;;;;21.42;10.75;;;;;;;4.85;86.57;101073.38;5049256;28;20542;-70
2022/11/28 03:49:23;;;;;;;15.38;8.35;;;;;;;4.87;85.69;101079.41;5047505;28;20044;-69
2022/11/28 03:51:54;;;;;;;16.33;8.07;;;;;;;4.74;86.73;101077.97;5043338;28;20676;-70
2022/11/28 03:54:28;;;;;;;10.47;7.37;;;;;;;4.59;87.00;101084.34;5060596;28;20055;-69
2022/11/28 03:57:01;;;;;;;16.40;9.18;;;;;;;4.73;86.68;101079.69;5070585;28;20504;-69
2022/11/28 03:59:33;;;;;;;20.15;9.73;;;;;;;4.53;87.87;101084.50;5070795;28;20055;-69
2022/11/28 04:02:05;;;;;;;22.05;9.07;;;;;;;4.73;86.83;101078.88;5069467;28;20047;-69
2022/11/28 04:04:39;;;;;;;16.60;8.73;;;;;;;4.50;87.54;101088.91;5058743;28;20044;-70
2022/11/28 04:07:14;;;;;;;19.20;10.00;;;;;;;4.35;88.76;101090.06;5055000;28;20045;-70
2022/11/28 04:09:47;;;;;;;24.98;10.43;;;;;;;4.40;88.81;101096.00;5059295;28;20051;-69
2022/11/28 04:12:21;;;;;;;20.10;10.98;;;;;;;4.53;88.05;101107.88;5049139;28;20044;-69
2022/11/28 04:14:53;;;;;;;21.20;9.70;;;;;;;4.86;86.74;101117.53;5042957;28;20048;-69
2022/11/28 04:17:29;;;;;;;19.55;10.32;;;;;;;5.11;85.64;101123.00;5050130;28;20048;-69
2022/11/28 04:20:03;;;;;;;15.50;8.57;;;;;;;5.08;84.86;101127.41;5049769;28;20040;-69
2022/11/28 04:22:33;;;;;;;16.23;8.52;;;;;;;5.11;85.10;101123.00;5051232;28;20558;-70
2022/11/28 04:25:04;;;;;;;21.38;8.73;;;;;;;5.79;81.46;101121.31;5054768;28;20049;-70
2022/11/28 04:27:35;;;;;;;19.17;10.50;;;;;;;5.51;81.97;101112.50;5039024;28;20599;-70
2022/11/28 04:30:04;;;;;;;20.00;9.37;;;;;;;5.48;82.35;101115.19;5011694;28;1049683;-70
2022/11/28 04:32:35;;;;;;;18.23;9.18;;;;;;;5.17;83.55;101104.69;5049779;28;20053;-70
2022/11/28 04:35:07;;;;;;;18.77;7.40;;;;;;;5.13;83.38;101113.44;5040333;28;20056;-70
2022/11/28 04:37:38;;;;;;;17.58;8.65;;;;;;;5.36;82.45;101116.31;5056688;28;20048;-70
2022/11/28 04:40:08;;;;;;;16.38;9.25;;;;;;;5.17;82.99;101103.81;5052890;28;20503;-70
2022/11/28 04:42:39;;;;;;;18.58;8.23;;;;;;;4.68;85.07;101104.06;5049524;28;20052;-70
2022/11/28 04:45:11;;;;;;;19.05;9.60;;;;;;;5.34;82.66;101094.72;5049358;28;20507;-70
2022/11/28 04:47:37;;;;;;;16.42;8.40;;;;;;;5.54;81.03;101089.03;5039233;28;20067;-69
2022/11/28 04:50:07;;;;;;;18.95;10.25;;;;;;;5.30;81.89;101090.50;5047676;28;20049;-69
2022/11/28 04:52:38;;;;;;;17.30;9.70;;;;;;;4.93;83.34;101081.00;5057982;28;20052;-69
2022/11/28 04:55:11;;;;;;;16.53;8.00;;;;;;;4.96;83.37;101079.19;5063934;28;20044;-70
2022/11/28 04:57:41;;;;;;;16.70;7.95;;;;;;;4.98;83.85;101068.75;5069815;28;20769;-69
2022/11/28 05:00:12;;;;;;;15.35;9.27;;;;;;;5.16;82.49;101045.78;5059831;28;20047;-69
2022/11/28 05:02:40;;;;;;;17.50;8.82;;;;;;;5.21;82.49;101049.09;5064155;28;20050;-70
2022/11/28 05:05:12;;;;;;;21.13;9.43;;;;;;;5.24;82.59;101058.59;5049863;28;20272;-70
2022/11/28 05:07:38;;;;;;;14.63;8.02;;;;;;;5.17;82.48;101055.28;5058091;28;20184;-70
2022/11/28 05:10:06;;;;;;;17.05;8.93;;;;;;;4.86;84.35;101065.56;5047949;28;20044;-70
2022/11/28 05:12:32;;;;;;;22.15;10.00;;;;;;;4.98;84.12;101064.41;5036117;28;20044;-69
2022/11/28 05:14:59;;;;;;;18.65;9.73;;;;;;;5.04;84.34;101059.06;5049635;28;20045;-70
2022/11/28 05:17:25;;;;;;;17.83;9.35;;;;;;;4.83;85.52;101067.38;5048799;28;20045;-69
2022/11/28 05:19:52;;;;;;;18.20;9.23;;;;;;;5.17;84.36;101062.25;5048524;28;20045;-69
2022/11/28 05:22:19;;;;;;;17.52;8.13;;;;;;;5.22;83.70;101061.22;5048516;28;20051;-69
2022/11/28 05:24:46;;;;;;;21.15;10.50;;;;;;;5.43;83.57;101065.03;5059873;28;20060;-69
2022/11/28 05:27:12;;;;;;;22.85;9.80;;;;;;;5.90;81.50;101058.63;5069592;28;20040;-69
2022/11/28 05:29:42;;;;;;;17.80;9.43;;;;;;;5.75;81.76;101064.19;5059584;28;20122;-69
2022/11/28 05:32:08;;;;;;;16.27;8.45;;;;;;;5.66;81.70;101064.44;5068531;28;20127;-69
2022/11/28 05:34:35;;;;;;;17.15;8.68;;;;;;;5.16;84.21;101063.97;5069414;28;20519;-69
2022/11/28 05:37:01;;;;;;;18.05;7.15;;;;;;;5.33;83.47;101053.16;5059198;28;20059;-69
2022/11/28 05:39:29;;;;;;;19.20;9.60;;;;;;;5.44;83.20;101056.31;5061617;28;20060;-69
2022/11/28 05:41:56;;;;;;;17.58;8.05;;;;;;;5.37;83.26;101044.38;5048131;28;20045;-69
2022/11/28 05:44:23;;;;;;;21.38;8.65;;;;;;;5.17;83.62;101041.44;5046039;28;20056;-70
2022/11/28 05:46:49;;;;;;;25.20;10.38;;;;;;;4.78;86.23;101043.22;5047795;28;20052;-70
2022/11/28 05:49:16;;;;;;;20.80;10.70;;;;;;;4.84;86.19;101048.31;5048575;28;20056;-69
2022/11/28 05:51:43;;;;;;;21.35;9.32;;;;;;;4.72;86.23;101039.03;5046016;28;21620;-69
2022/11/28 05:54:09;;;;;;;19.42;9.98;;;;;;;5.18;85.09;101038.78;5059787;28;20075;-70
2022/11/28 05:56:37;;;;;;;17.83;8.80;;;;;;;5.03;84.69;101033.09;5069033;28;20056;-70
2022/11/28 05:59:03;;;;;;;20.27;10.05;;;;;;;5.00;85.61;101035.78;5057987;28;20050;-70
2022/11/28 06:01:30;;;;;;;20.50;9.57;;;;;;;4.96;85.29;101032.41;5067925;28;20048;-70
2022/11/28 06:03:59;;;;;;;22.23;9.48;;;;;;;4.96;84.63;101034.13;5053706;28;20484;-69
2022/11/28 06:06:27;;;;;;;15.40;8.13;;;;;;;4.53;86.41;101029.97;5052517;28;20071;-70
2022/11/28 06:08:54;;;;;;;20.35;9.27;;;;;;;4.79;85.51;101021.56;5059715;28;20050;-69
2022/11/28 06:11:22;;;;;;;16.10;9.13;;;;;;;4.88;84.46;101022.19;5066021;28;20492;-69
2022/11/28 06:13:50;;;;;;;19.08;10.32;;;;;;;4.89;85.22;101016.13;5069032;28;20048;-69
2022/11/28 06:16:19;;;;;;;15.70;8.80;;;;;;;4.35;86.89;101023.44;5068801;28;20047;-70
2022/11/28 06:18:46;;;;;;;23.35;10.65;;;;;;;4.52;86.57;101025.63;5055578;28;20044;-70
2022/11/28 06:21:14;;;;;;;18.40;9.73;;;;;;;4.58;86.61;101014.28;5046444;28;20095;-69
2022/11/28 06:23:41;;;;;;;16.55;8.63;;;;;;;4.58;85.89;101029.84;5059024;28;20048;-70
2022/11/28 06:26:10;;;;;;;19.67;8.85;;;;;;;4.51;86.94;101017.91;5059063;28;20055;-70
2022/11/28 06:28:37;;;;;;;16.13;8.82;;;;;;;4.81;85.52;101009.38;5068608;28;21711;-70
2022/11/28 06:31:10;;;;;;;20.92;8.80;;;;;;;4.69;85.76;101004.50;5067648;28;20051;-70
2022/11/28 06:33:36;;;;;;;18.17;9.15;;;;;;;4.62;86.03;100995.16;5046991;28;20075;-70
2022/11/28 06:36:04;;;;;;;18.65;8.00;;;;;;;4.57;86.09;101002.19;5052961;28;20463;-70
2022/11/28 06:38:32;;;;;;;24.27;8.27;;;;;;;4.55;85.77;100997.00;5059711;28;20048;-70
2022/11/28 06:41:00;;;;;;;17.48;8.05;;;;;;;4.44;86.06;101006.78;5058451;28;20044;-70
2022/11/28 06:43:27;;;;;;;21.50;10.05;;;;;;;4.31;86.84;100997.56;5067620;28;20051;-70
2022/11/28 06:45:54;;;;;;;19.60;6.82;;;;;;;4.39;86.68;100999.13;5068706;28;20051;-70
2022/11/28 06:48:22;;;;;;;17.25;8.20;;;;;;;4.44;86.94;101006.78;5058783;28;20048;-70
2022/11/28 06:50:49;;;;;;;19.73;8.88;;;;;;;4.43;86.21;101005.09;5060088;28;20051;-70
2022/11/28 06:53:15;;;;;;;19.92;9.32;;;;;;;4.45;86.29;101008.50;5056933;28;20499;-70
2022/11/28 06:55:42;;;;;;;11.40;6.13;;;;;;;4.43;85.72;101011.13;5037786;28;20060;-70
2022/11/28 06:58:09;;;;;;;17.15;8.73;;;;;;;4.41;86.06;101010.31;5047166;28;20043;-70
2022/11/28 07:00:36;;;;;;;20.95;9.05;;;;;;;4.23;86.76;101002.06;5047682;28;20044;-70
2022/11/28 07:03:03;;;;;;;14.98;6.55;;;;;;;4.37;86.29;101007.81;5037557;28;20048;-67
2022/11/28 07:05:31;;;;;;;18.23;8.07;;;;;;;4.46;85.81;101005.00;5047912;28;20543;-67
2022/11/28 07:07:57;;;;;;;16.50;8.95;;;;;;;4.58;85.66;101007.31;5060625;28;20048;-68
2022/11/28 07:10:25;;;;;;;14.57;8.27;;;;;;;4.69;84.93;101001.91;5058666;28;20044;-67
2022/11/28 07:12:53;;;;;;;17.00;7.50;;;;;;;4.96;83.45;101011.63;5068013;28;20499;-67
2022/11/28 07:15:20;;;;;;;16.20;7.53;;;;;;;4.68;84.75;101005.38;5068115;28;20047;-67
2022/11/28 07:17:46;;;;;;;17.95;7.43;;;;;;;4.77;84.50;101011.19;5058100;28;20048;-67
2022/11/28 07:20:14;;;;;;;12.02;5.63;;;;;;;4.57;84.89;101018.63;5060268;28;20508;-67
2022/11/28 07:22:42;;;;;;;19.25;8.73;;;;;;;4.44;86.21;101011.97;5047556;28;20045;-68
2022/11/28 07:25:09;;;;;;;22.23;10.13;;;;;;;4.79;84.55;101003.38;5057383;28;20040;-67
2022/11/28 07:27:35;;;;;;;18.92;8.45;;;;;;;4.82;84.14;100992.91;5071239;28;20044;-68
2022/11/28 07:30:02;;;;;;;20.13;8.25;;;;;;;5.09;83.08;100999.19;5064271;28;20493;-67
2022/11/28 07:32:28;;;;;;;15.52;6.82;;;;;;;4.96;82.71;100990.81;5045211;27;20044;-67
2022/11/28 07:34:55;;;;;;;16.38;7.32;;;;;;;4.75;83.53;100980.97;5053613;28;20388;-67
2022/11/28 07:37:21;;;;;;;14.43;7.70;;;;;;;4.51;84.74;100978.97;5061344;28;20507;-67
2022/11/28 07:39:49;;;;;;;14.38;6.88;;;;;;;4.25;86.28;100974.34;5052722;28;20415;-66
2022/11/28 07:42:15;;;;;;;16.92;7.53;;;;;;;4.55;85.18;100971.03;5070390;28;20496;-67
2022/11/28 07:44:42;;;;;;;15.57;8.30;;;;;;;4.51;84.59;100972.00;5071979;28;20412;-67
2022/11/28 07:47:08;;;;;;;11.45;6.50;;;;;;;4.55;84.73;100963.25;5061358;28;20044;-67
2022/11/28 07:49:34;;;;;;;13.15;7.38;;;;;;;4.91;83.25;100966.72;5070175;28;20065;-68
2022/11/28 07:52:01;;;;;;;18.48;8.35;;;;;;;4.79;83.19;100961.81;5059032;28;20044;-67
2022/11/28 07:54:27;;;;;;;17.75;8.35;;;;;;;4.67;84.23;100957.78;5049654;28;20416;-67
2022/11/28 07:56:55;;;;;;;15.30;8.35;;;;;;;4.98;83.14;100962.22;5050556;28;20045;-67
2022/11/28 07:59:22;;;;;;;11.25;5.47;;;;;;;5.02;82.24;100959.50;5051534;28;20052;-68
2022/11/28 08:01:48;;;;;;;16.27;7.53;;;;;;;4.95;83.35;100957.09;5041168;28;20137;-67
2022/11/28 08:04:15;;;;;;;10.52;5.53;;;;;;;5.08;82.22;100963.69;5050184;28;20044;-67
2022/11/28 08:06:43;;;;;;;16.67;7.32;;;;;;;5.19;81.87;100972.06;5050629;28;20052;-67
2022/11/28 08:09:10;;;;;;;14.85;6.90;;;;;;;5.12;82.18;100966.16;5040302;28;20044;-67
2022/11/28 08:11:38;;;;;;;8.55;3.90;;;;;;;5.09;81.62;100961.06;5049065;28;20052;-67
2022/11/28 08:14:06;;;;;;;12.43;6.30;;;;;;;5.10;82.10;100961.91;5050687;28;20051;-67
2022/11/28 08:16:33;;;;;;;16.27;7.63;;;;;;;5.25;82.15;100969.28;5040822;28;20059;-67
2022/11/28 08:19:01;;;;;;;18.20;7.95;;;;;;;5.50;80.90;100972.97;5049929;28;20054;-66
2022/11/28 08:21:29;;;;;;;15.25;7.70;;;;;;;5.49;81.30;100963.44;5053532;28;20037;-66
2022/11/28 08:23:58;;;;;;;14.25;7.50;;;;;;;5.82;79.22;100962.50;5052496;28;20043;-66
2022/11/28 08:26:26;;;;;;;15.73;7.78;;;;;;;5.54;79.89;100964.19;5069708;28;20488;-66
2022/11/28 08:28:53;;;;;;;11.57;6.40;;;;;;;5.84;79.45;100962.44;5069896;28;20044;-66
2022/11/28 08:31:23;;;;;;;12.88;7.30;;;;;;;5.64;79.74;100957.81;5081846;27;20043;-66
2022/11/28 08:33:51;;;;;;;12.70;6.85;;;;;;;5.38;79.90;100958.53;5071915;27;20048;-67
2022/11/28 08:36:19;;;;;;;19.55;8.52;;;;;;;5.27;81.46;100964.91;5041267;28;20056;-67
2022/11/28 08:38:46;;;;;;;11.15;6.13;;;;;;;5.33;80.83;100951.75;5049819;28;20056;-66
2022/11/28 08:41:14;;;;;;;12.48;6.10;;;;;;;5.35;81.09;100961.22;5048973;28;20511;-66
2022/11/28 08:43:41;;;;;;;13.75;7.38;;;;;;;5.21;81.48;100970.28;5040184;28;20048;-66
2022/11/28 08:46:10;;;;;;;17.02;7.00;;;;;;;5.43;81.02;100966.22;5050278;28;20052;-66
2022/11/28 08:48:39;;;;;;;17.70;7.47;;;;;;;5.67;79.89;100970.75;5049593;28;20049;-66
2022/11/28 08:51:08;;;;;;;15.23;6.65;;;;;;;5.30;81.15;100973.50;5039927;28;20048;-66
2022/11/28 08:53:34;;;;;;;13.60;6.40;;;;;;;5.49;80.32;100966.03;5058557;28;20110;-66
2022/11/28 08:56:02;;;;;;;15.90;7.18;;;;;;;5.48;81.35;100968.69;5069911;28;20056;-66
2022/11/28 08:58:28;;;;;;;14.90;7.78;;;;;;;5.19;81.77;100977.25;5056552;27;20063;-66
2022/11/28 09:00:55;;;;;;;11.85;5.82;;;;;;;5.03;82.64;100970.72;5069076;27;20043;-66
2022/11/28 09:03:21;;;;;;;16.23;7.28;;;;;;;4.98;82.64;100973.47;5059863;28;20083;-66
2022/11/28 09:05:49;;;;;;;22.73;6.68;;;;;;;5.40;80.65;100982.75;5040564;28;20039;-65
2022/11/28 09:08:17;;;;;;;18.02;7.60;;;;;;;5.23;80.33;100987.53;5061054;28;20055;-65
2022/11/28 09:10:44;;;;;;;12.70;7.03;;;;;;;5.56;79.66;100992.75;5068898;27;20058;-65
2022/11/28 09:13:12;;;;;;;12.43;5.18;;;;;;;5.30;80.46;100996.03;5059359;27;20407;-65
2022/11/28 09:15:39;;;;;;;18.00;8.07;;;;;;;5.12;82.30;101014.69;5068249;27;20052;-64
2022/11/28 09:18:06;;;;;;;14.35;7.32;;;;;;;5.32;81.67;101021.09;5069649;27;20047;-66
2022/11/28 09:20:33;;;;;;;16.30;7.90;;;;;;;5.49;80.17;101025.88;5058797;27;20438;-65
2022/11/28 09:23:01;;;;;;;16.83;8.13;;;;;;;5.78;79.92;101023.34;5057337;28;20052;-66
2022/11/28 09:25:28;;;;;;;14.30;7.68;;;;;;;6.03;78.64;101030.47;5055436;28;20060;-66
2022/11/28 09:27:54;;;;;;;21.42;8.85;;;;;;;5.86;77.94;101030.97;5039961;28;20041;-66
2022/11/28 09:30:21;;;;;;;16.70;7.35;;;;;;;5.36;79.92;101027.91;5048553;28;20415;-66
2022/11/28 09:32:48;;;;;;;13.38;7.05;;;;;;;5.19;80.28;101026.66;5049364;28;20472;-66
2022/11/28 09:35:15;;;;;;;17.77;7.03;;;;;;;5.31;80.47;101019.41;5038162;28;20040;-65
2022/11/28 09:37:41;;;;;;;14.85;7.65;;;;;;;5.41;80.16;101020.00;5048163;28;20056;-65
2022/11/28 09:40:16;;;;;;;19.58;7.85;;;;;;;5.58;79.14;101023.00;5048277;28;20052;-66
2022/11/28 09:42:43;;;;;;;20.17;7.45;;;;;;;5.64;79.19;101009.84;5038733;28;20500;-65
2022/11/28 09:45:14;;;;;;;22.35;8.98;;;;;;;6.02;77.41;101001.03;5046954;28;20072;-66
2022/11/28 09:47:44;;;;;;;22.58;8.10;;;;;;;6.13;76.67;101005.91;5046945;28;20059;-66
2022/11/28 09:50:15;;;;;;;16.05;8.45;;;;;;;6.13;77.10;101000.69;5049081;28;20056;-66
2022/11/28 09:52:48;;;;;;;19.55;8.43;;;;;;;6.17;77.01;101003.16;5056553;28;20048;-66
2022/11/28 09:55:24;;;;;;;17.13;8.13;;;;;;;6.10;77.51;100986.00;5038631;28;20048;-66
2022/11/28 09:57:53;;;;;;;20.52;8.57;;;;;;;6.33;76.66;100988.78;5054241;28;20051;-66
2022/11/28 10:00:22;;;;;;;16.60;7.55;;;;;;;5.81;79.29;100975.53;5058624;28;20048;-66
2022/11/28 10:03:07;;;;;;;17.55;7.93;;;;;;;5.79;80.25;100973.00;5075013;27;20058;-66
2022/11/28 10:05:37;;;;;;;19.77;8.23;;;;;;;6.09;79.61;100973.06;5039645;27;20045;-66
2022/11/28 10:08:21;;;;;;;13.35;5.97;;;;;;;5.98;79.53;100959.50;5028382;28;20052;-66
2022/11/28 10:10:57;;;;;;;17.33;8.35;;;;;;;5.74;80.01;100971.41;5024880;28;20052;-66
2022/11/28 10:13:31;;;;;;;17.48;7.82;;;;;;;5.69;80.24;100965.50;5045011;28;20048;-66
2022/11/28 10:16:10;;;;;;;19.33;9.63;;;;;;;5.81;80.96;100960.78;5047345;28;20055;-67
2022/11/28 10:18:43;;;;;;;22.05;10.38;;;;;;;5.84;80.34;100954.63;5048248;28;20048;-66
2022/11/28 10:21:22;;;;;;;18.45;8.30;;;;;;;5.98;78.91;100949.09;5048131;28;20049;-66
2022/11/28 10:23:52;;;;;;;19.35;7.75;;;;;;;5.62;81.04;100956.13;5056022;28;20125;-66
2022/11/28 10:26:27;;;;;;;14.02;7.13;;;;;;;5.54;81.33;100953.78;5048075;28;20446;-66
2022/11/28 10:28:57;;;;;;;15.80;8.20;;;;;;;5.72;81.54;100948.06;5037701;28;20064;-66
2022/11/28 10:31:31;;;;;;;13.80;7.97;;;;;;;5.62;81.49;100956.13;5046700;28;20044;-66
2022/11/28 10:34:03;;;;;;;18.70;8.23;;;;;;;6.01;80.57;100980.22;5037992;28;20072;-66
2022/11/28 10:36:34;;;;;;;18.23;9.02;;;;;;;5.48;82.05;100982.53;5046936;28;20750;-65
2022/11/28 10:39:01;;;;;;;17.10;8.65;;;;;;;5.56;82.68;100995.34;5047653;28;20051;-66
2022/11/28 10:41:35;;;;;;;13.77;6.28;;;;;;;5.96;80.95;100995.09;5039842;28;20041;-65
2022/11/28 10:44:11;;;;;;;20.90;8.52;;;;;;;6.08;80.11;100999.97;5055229;28;20052;-65
2022/11/28 10:46:53;;;;;;;21.63;8.45;;;;;;;5.75;81.77;100993.94;5037746;28;20423;-65
2022/11/28 10:49:32;;;;;;;;;;;;;;;5.82;81.50;100992.88;5038652;28;20044;-65
2022/11/28 10:52:08;;;;;;;22.20;9.20;;;;;;;5.71;82.33;100987.97;5043802;28;19995;-65
2022/11/28 10:54:53;;;;;;;16.70;8.25;;;;;;;6.24;80.26;100985.63;5061182;28;20048;-65
2022/11/28 10:57:23;;;;;;;19.42;9.57;;;;;;;6.66;78.47;100986.88;5046270;27;20055;-66
2022/11/28 11:00:01;;;;;;;17.83;8.30;;;;;;;6.70;77.17;100975.47;5059317;28;20052;-65
2022/11/28 11:02:36;;;;;;;18.35;8.88;;;;;;;6.56;78.32;100980.25;5041893;28;20037;-66
2022/11/28 11:05:03;;;;;;;20.48;7.97;;;;;;;6.19;79.08;100971.88;5049633;28;20071;-65
2022/11/28 11:07:31;;;;;;;19.50;8.93;;;;;;;6.32;78.75;100970.59;5047436;28;20048;-65
2022/11/28 11:10:12;;;;;;;23.83;9.30;;;;;;;6.48;78.69;100965.75;5050853;28;20373;-65
2022/11/28 11:12:40;;;;;;;16.55;8.15;;;;;;;6.52;77.72;100963.03;5054190;28;20048;-65
2022/11/28 11:15:20;;;;;;;15.48;8.13;;;;;;;6.84;76.98;100956.75;5053812;28;20415;-65
2022/11/28 11:17:49;;;;;;;17.13;8.05;;;;;;;6.60;77.93;100952.34;5051169;28;20049;-65
2022/11/28 11:20:32;;;;;;;22.42;10.18;;;;;;;6.83;77.56;100955.09;5061097;28;20105;-65
2022/11/28 11:23:01;;;;;;;18.30;8.25;;;;;;;6.71;78.29;100947.66;5053239;28;20044;-65
2022/11/28 11:25:29;;;;;;;16.83;7.22;;;;;;;6.77;77.54;100950.91;5043831;28;20047;-65
2022/11/28 11:28:00;;;;;;;23.63;8.70;;;;;;;6.70;78.17;100946.78;5050243;28;20055;-65
2022/11/28 11:30:29;;;;;;;20.00;8.70;;;;;;;6.33;79.63;100935.84;5048469;28;20058;-65
2022/11/28 11:32:58;;;;;;;19.05;8.55;;;;;;;6.56;79.31;100942.94;5053637;27;20059;-66
2022/11/28 11:35:27;;;;;;;17.90;8.48;;;;;;;6.88;77.69;100939.25;5069845;27;20558;-65
2022/11/28 11:38:15;;;;;;;18.90;9.48;;;;;;;6.77;77.84;100929.19;5062877;27;20055;-65